Forest Junction, Wisconsin
Current Conditions -  °F | °C
As of 3:45 PM on Friday 24 Oct 2014 (Local Time) from KATW Reporting Station
Broken Clouds Broken Clouds  
Wind Chill: 52°   Ceiling: 9000
Heat Index: 52°   Visibility: 10mi
Dew Point: 50°   Wind: 9mph
Humidity: 94%   Direction: 200°SSW
Pressure: 29.93"   Gusts: NA
Location:  44.21°N, 88.14°W
Report Text: KATW 242045Z 20008KT 10SM SCT008 BKN090 11/10 A2993
Loading
Personal Weather Stations






























Interactive Weather Map
Tropical Storm Tracking
New forecast layout! Learn more

10-Day Weather Forecast

Advertisements
Track Severe Weather on mobile